This is the latest recevied weather packets stored in our database for station/object F5PQL-4. If no packets are shown the sender has not sent any weather packets the latest 10 day(s).
| Time | Temp. | Humidity | Pressure | Rain* | Wind** | Luminosity | Snow |
|---|---|---|---|---|---|---|---|
| 1777473386 | 34.44° C | 26% | 1014.4 hPa | - | - | - | - |
| 1777472486 | 33.89° C | 27% | 1014.6 hPa | - | - | - | - |
| 1777471586 | 33.89° C | 27% | 1014.6 hPa | - | - | - | - |
| 1777470685 | 33.89° C | 26% | 1014.9 hPa | - | - | - | - |
| 1777469785 | 33.89° C | 27% | 1014.8 hPa | - | - | - | - |
| 1777468885 | 33.89° C | 27% | 1014.9 hPa | - | - | - | - |
| 1777467985 | 35° C | 25% | 1015.1 hPa | - | - | - | - |
| 1777467084 | 35° C | 25% | 1015.1 hPa | - | - | - | - |
| 1777466184 | 36.67° C | 24% | 1015.2 hPa | - | - | - | - |
| 1777465284 | 37.78° C | 24% | 1015.4 hPa | - | - | - | - |
| 1777464384 | 35.56° C | 26% | 1015.5 hPa | - | - | - | - |
| 1777463483 | 34.44° C | 28% | 1015.6 hPa | - | - | - | - |
| 1777462583 | 35.56° C | 29% | 1015.7 hPa | - | - | - | - |
| 1777461683 | 33.89° C | 32% | 1015.7 hPa | - | - | - | - |
| 1777460783 | 32.78° C | 34% | 1015.8 hPa | - | - | - | - |
| 1777459883 | 32.78° C | 35% | 1016 hPa | - | - | - | - |
| 1777458983 | 34.44° C | 36% | 1016 hPa | - | - | - | - |
| 1777458083 | 38.33° C | 37% | 1016.2 hPa | - | - | - | - |
| 1777457183 | 36.11° C | 39% | 1016.3 hPa | - | - | - | - |
| 1777456283 | 29.44° C | 50% | 1016.6 hPa | - | - | - | - |
| 1777455382 | 30.56° C | 49% | 1016.6 hPa | - | - | - | - |
| 1777454482 | 32.78° C | 47% | 1016.7 hPa | - | - | - | - |
| 1777453582 | 30° C | 51% | 1016.8 hPa | - | - | - | - |
| 1777452682 | 30° C | 51% | 1016.7 hPa | - | - | - | - |
| 1777451782 | 27.78° C | 59% | 1016.7 hPa | - | - | - | - |
* Rain since midnight (hover to see other rain measurements)
** Current wind speed in m/s (hover to see current wind gust speed)